Time,TemperatureF,DewpointF,PressureIn,WindDirection,WindDirectionDegrees,WindSpeedMPH,WindSpeedGustMPH,Humidity,HourlyPrecipIn,Conditions,Clouds,dailyrainin,SoftwareType,DateUTC
2013-08-31 00:00:00,71.3,67.7,-100.00,West,274,4.3,10.1,88,0.00,,,-99.99,HOBO +U30 +Weather +,2013-08-31 04:00:00,
2013-08-31 00:19:00,71.2,67.6,-100.00,West,279,3.8,12.1,88,0.00,,,-99.99,HOBO +U30 +Weather +,2013-08-31 04:19:00,
2013-08-31 00:30:00,70.9,67.4,-100.00,West,278,4.3,10.7,88,0.00,,,-99.99,HOBO +U30 +Weather +,2013-08-31 04:30:00,
2013-08-31 00:45:00,70.2,67.0,-100.00,WNW,282,3.4,10.1,89,0.00,,,-99.99,HOBO +U30 +Weather +,2013-08-31 04:45:00,
2013-08-31 01:00:00,70.5,67.2,-100.00,West,279,3.8,8.3,89,0.00,,,-99.99,HOBO +U30 +Weather +,2013-08-31 05:00:00,
2013-08-31 01:19:00,70.6,67.3,-100.00,WNW,284,4.3,13.0,89,0.00,,,-99.99,HOBO +U30 +Weather +,2013-08-31 05:19:00,
2013-08-31 01:30:00,70.3,67.3,-100.00,WNW,288,3.4,9.6,90,0.00,,,-99.99,HOBO +U30 +Weather +,2013-08-31 05:30:00,
2013-08-31 01:45:00,70.2,67.3,-100.00,West,277,4.3,9.2,90,0.00,,,-99.99,HOBO +U30 +Weather +,2013-08-31 05:45:00,
2013-08-31 02:00:00,69.9,67.3,-100.00,West,275,4.5,10.3,91,0.00,,,-99.99,HOBO +U30 +Weather +,2013-08-31 06:00:00,
2013-08-31 02:15:00,69.3,67.1,-100.00,West,268,3.8,9.6,92,0.00,,,-99.99,HOBO +U30 +Weather +,2013-08-31 06:15:00,
2013-08-31 02:30:00,69.1,67.0,-100.00,WNW,289,3.4,10.3,93,0.00,,,-99.99,HOBO +U30 +Weather +,2013-08-31 06:30:00,
2013-08-31 02:45:00,68.7,67.0,-100.00,West,278,4.5,12.1,93,0.00,,,-99.99,HOBO +U30 +Weather +,2013-08-31 06:45:00,
2013-08-31 03:00:00,68.4,66.9,-100.00,West,271,4.5,11.2,94,0.00,,,-99.99,HOBO +U30 +Weather +,2013-08-31 07:00:00,
2013-08-31 03:15:00,68.2,66.9,-100.00,West,260,4.5,10.1,95,0.00,,,-99.99,HOBO +U30 +Weather +,2013-08-31 07:15:00,
2013-08-31 03:30:00,68.7,67.2,-100.00,West,274,4.9,10.1,94,0.00,,,-99.99,HOBO +U30 +Weather +,2013-08-31 07:30:00,
2013-08-31 03:45:00,68.6,67.2,-100.00,West,275,3.8,8.7,95,0.00,,,-99.99,HOBO +U30 +Weather +,2013-08-31 07:45:00,
2013-08-31 04:00:00,68.7,67.3,-100.00,West,274,3.4,9.6,94,0.00,,,-99.99,HOBO +U30 +Weather +,2013-08-31 08:00:00,
2013-08-31 04:15:00,69.1,67.6,-100.00,West,278,3.4,9.6,94,0.00,,,-99.99,HOBO +U30 +Weather +,2013-08-31 08:15:00,
2013-08-31 04:30:00,69.5,68.0,-100.00,West,272,3.8,10.3,94,0.00,,,-99.99,HOBO +U30 +Weather +,2013-08-31 08:30:00,
2013-08-31 04:45:00,69.5,68.0,-100.00,West,270,4.9,11.6,94,0.00,,,-99.99,HOBO +U30 +Weather +,2013-08-31 08:45:00,
2013-08-31 05:00:00,69.6,68.1,-100.00,West,268,4.9,13.0,94,0.00,,,-99.99,HOBO +U30 +Weather +,2013-08-31 09:00:00,
2013-08-31 05:15:00,69.7,68.3,-100.00,WNW,282,4.5,10.7,94,0.00,,,-99.99,HOBO +U30 +Weather +,2013-08-31 09:15:00,
2013-08-31 05:30:00,69.6,68.1,-100.00,WNW,292,2.9,10.3,94,0.00,,,-99.99,HOBO +U30 +Weather +,2013-08-31 09:30:00,
2013-08-31 05:45:00,69.5,68.0,-100.00,NNW,341,1.3,4.3,94,0.00,,,-99.99,HOBO +U30 +Weather +,2013-08-31 09:45:00,
2013-08-31 06:00:00,69.6,68.2,-100.00,NW,313,1.3,4.3,95,0.00,,,-99.99,HOBO +U30 +Weather +,2013-08-31 10:00:00,
2013-08-31 06:15:00,70.0,68.6,-100.00,WNW,284,1.6,6.3,94,0.00,,,-99.99,HOBO +U30 +Weather +,2013-08-31 10:15:00,
2013-08-31 06:39:00,69.7,68.4,-100.00,WSW,257,1.6,4.5,95,0.00,,,-99.99,HOBO +U30 +Weather +,2013-08-31 10:39:00,
2013-08-31 06:45:00,69.8,68.6,-100.00,West,261,2.0,5.8,95,0.00,,,-99.99,HOBO +U30 +Weather +,2013-08-31 10:45:00,
2013-08-31 07:00:00,70.0,68.7,-100.00,WNW,282,2.0,6.3,95,0.00,,,-99.99,HOBO +U30 +Weather +,2013-08-31 11:00:00,
2013-08-31 07:15:00,70.2,68.9,-100.00,WSW,254,2.0,5.8,95,0.00,,,-99.99,HOBO +U30 +Weather +,2013-08-31 11:15:00,
2013-08-31 07:30:00,70.6,69.2,-100.00,West,272,1.6,6.3,94,0.00,,,-99.99,HOBO +U30 +Weather +,2013-08-31 11:30:00,
2013-08-31 07:45:00,70.9,69.5,-100.00,SW,226,1.3,4.3,95,0.00,,,-99.99,HOBO +U30 +Weather +,2013-08-31 11:45:00,
2013-08-31 08:00:00,71.2,69.8,-100.00,SSW,194,0.4,2.0,95,0.00,,,-99.99,HOBO +U30 +Weather +,2013-08-31 12:00:00,
2013-08-31 08:15:00,71.5,69.9,-100.00,WSW,240,1.3,5.8,94,0.00,,,-99.99,HOBO +U30 +Weather +,2013-08-31 12:15:00,
2013-08-31 08:30:00,72.0,70.2,-100.00,West,264,2.0,7.4,93,0.00,,,-99.99,HOBO +U30 +Weather +,2013-08-31 12:30:00,
2013-08-31 08:45:00,72.2,70.5,-100.00,WSW,254,2.9,6.3,94,0.00,,,-99.99,HOBO +U30 +Weather +,2013-08-31 12:45:00,
2013-08-31 09:00:00,73.0,71.1,-100.00,WSW,240,2.0,6.3,93,0.00,,,-99.99,HOBO +U30 +Weather +,2013-08-31 13:00:00,
2013-08-31 09:15:00,73.3,71.2,-100.00,SW,225,2.9,6.3,92,0.00,,,-99.99,HOBO +U30 +Weather +,2013-08-31 13:15:00,
2013-08-31 09:30:00,72.9,71.0,-100.00,SW,223,3.4,7.8,93,0.00,,,-99.99,HOBO +U30 +Weather +,2013-08-31 13:30:00,
2013-08-31 09:45:00,74.1,71.6,-100.00,WSW,246,2.5,5.8,91,0.00,,,-99.99,HOBO +U30 +Weather +,2013-08-31 13:45:00,
2013-08-31 10:00:00,75.0,72.4,-100.00,WSW,257,2.9,6.7,91,0.00,,,-99.99,HOBO +U30 +Weather +,2013-08-31 14:00:00,
2013-08-31 10:15:00,75.1,72.2,-100.00,SW,234,3.4,6.7,90,0.00,,,-99.99,HOBO +U30 +Weather +,2013-08-31 14:15:00,
2013-08-31 10:30:00,76.2,72.6,-100.00,WSW,251,2.9,9.2,88,0.00,,,-99.99,HOBO +U30 +Weather +,2013-08-31 14:30:00,
2013-08-31 10:45:00,75.7,72.1,-100.00,West,264,2.9,7.8,88,0.00,,,-99.99,HOBO +U30 +Weather +,2013-08-31 14:45:00,
2013-08-31 11:00:00,76.4,73.1,-100.00,WSW,246,2.9,7.2,89,0.00,,,-99.99,HOBO +U30 +Weather +,2013-08-31 15:00:00,
2013-08-31 11:15:00,76.2,72.3,-100.00,SW,227,2.9,7.8,87,0.00,,,-99.99,HOBO +U30 +Weather +,2013-08-31 15:15:00,
2013-08-31 11:30:00,75.4,72.3,-100.00,WSW,248,3.4,6.7,89,0.00,,,-99.99,HOBO +U30 +Weather +,2013-08-31 15:30:00,
2013-08-31 11:45:00,75.6,72.4,-100.00,WSW,247,2.9,6.7,89,0.00,,,-99.99,HOBO +U30 +Weather +,2013-08-31 15:45:00,
2013-08-31 12:00:00,75.5,72.6,-100.00,WSW,247,2.9,6.7,90,0.00,,,-99.99,HOBO +U30 +Weather +,2013-08-31 16:00:00,
2013-08-31 12:15:00,76.0,73.4,-100.00,WSW,246,2.5,5.8,91,0.00,,,-99.99,HOBO +U30 +Weather +,2013-08-31 16:15:00,
2013-08-31 12:30:00,76.2,73.4,-100.00,SW,227,3.4,9.2,90,0.00,,,-99.99,HOBO +U30 +Weather +,2013-08-31 16:30:00,
2013-08-31 12:45:00,76.4,73.3,-100.00,SW,232,4.5,10.7,90,0.00,,,-99.99,HOBO +U30 +Weather +,2013-08-31 16:45:00,
2013-08-31 13:00:00,76.2,72.8,-100.00,SW,234,3.8,10.1,88,0.00,,,-99.99,HOBO +U30 +Weather +,2013-08-31 17:00:00,
2013-08-31 13:15:00,77.0,73.6,-100.00,WSW,237,2.9,7.2,88,0.00,,,-99.99,HOBO +U30 +Weather +,2013-08-31 17:15:00,
2013-08-31 13:30:00,78.0,74.0,-100.00,WSW,256,2.5,6.3,87,0.00,,,-99.99,HOBO +U30 +Weather +,2013-08-31 17:30:00,
2013-08-31 13:45:00,77.7,73.6,-100.00,WSW,257,3.8,7.4,87,0.00,,,-99.99,HOBO +U30 +Weather +,2013-08-31 17:45:00,
2013-08-31 14:03:00,77.6,73.9,-100.00,SW,233,4.5,8.7,88,0.00,,,-99.99,HOBO +U30 +Weather +,2013-08-31 18:03:00,
2013-08-31 14:15:00,77.4,73.4,-100.00,SW,236,4.3,9.2,87,0.00,,,-99.99,HOBO +U30 +Weather +,2013-08-31 18:15:00,
2013-08-31 14:30:00,77.3,73.4,-100.00,WSW,248,4.3,10.3,87,0.00,,,-99.99,HOBO +U30 +Weather +,2013-08-31 18:30:00,
2013-08-31 14:45:00,76.8,73.1,-100.00,WSW,247,3.8,9.6,88,0.00,,,-99.99,HOBO +U30 +Weather +,2013-08-31 18:45:00,
2013-08-31 15:02:00,76.8,73.5,-100.00,WSW,241,3.4,7.8,89,0.00,,,-99.99,HOBO +U30 +Weather +,2013-08-31 19:02:00,
2013-08-31 15:15:00,76.8,73.1,-100.00,WSW,239,3.8,10.3,88,0.00,,,-99.99,HOBO +U30 +Weather +,2013-08-31 19:15:00,
2013-08-31 15:30:00,76.2,73.1,-100.00,WSW,239,3.8,8.7,90,0.00,,,-99.99,HOBO +U30 +Weather +,2013-08-31 19:30:00,
2013-08-31 15:45:00,76.3,73.3,-100.00,SW,222,4.3,9.6,90,0.00,,,-99.99,HOBO +U30 +Weather +,2013-08-31 19:45:00,
2013-08-31 16:00:00,75.8,72.9,-100.00,SW,215,4.5,8.7,90,0.00,,,-99.99,HOBO +U30 +Weather +,2013-08-31 20:00:00,
2013-08-31 16:15:00,76.0,72.7,-100.00,WSW,239,4.3,11.2,89,0.00,,,-99.99,HOBO +U30 +Weather +,2013-08-31 20:15:00,
2013-08-31 16:30:00,75.7,72.5,-100.00,WSW,239,3.8,9.2,89,0.00,,,-99.99,HOBO +U30 +Weather +,2013-08-31 20:30:00,
2013-08-31 16:45:00,75.8,72.8,-100.00,SW,232,2.9,7.2,90,0.00,,,-99.99,HOBO +U30 +Weather +,2013-08-31 20:45:00,
2013-08-31 17:00:00,75.6,72.4,-100.00,SW,226,4.5,12.5,89,0.00,,,-99.99,HOBO +U30 +Weather +,2013-08-31 21:00:00,
2013-08-31 17:15:00,75.3,72.1,-100.00,SW,229,4.3,8.7,89,0.00,,,-99.99,HOBO +U30 +Weather +,2013-08-31 21:15:00,
2013-08-31 17:30:00,75.1,71.9,-100.00,WSW,248,4.3,8.3,89,0.00,,,-99.99,HOBO +U30 +Weather +,2013-08-31 21:30:00,
2013-08-31 17:45:00,74.9,71.8,-100.00,WSW,243,3.4,10.3,89,0.00,,,-99.99,HOBO +U30 +Weather +,2013-08-31 21:45:00,
2013-08-31 18:00:00,74.8,71.7,-100.00,WSW,240,3.4,7.2,89,0.00,,,-99.99,HOBO +U30 +Weather +,2013-08-31 22:00:00,
2013-08-31 18:15:00,74.3,71.6,-100.00,WSW,243,4.3,11.2,91,0.00,,,-99.99,HOBO +U30 +Weather +,2013-08-31 22:15:00,
2013-08-31 18:30:00,74.2,71.5,-100.00,WSW,244,2.9,7.4,91,0.00,,,-99.99,HOBO +U30 +Weather +,2013-08-31 22:30:00,
2013-08-31 18:45:00,74.1,71.6,-100.00,WSW,237,2.9,6.7,91,0.00,,,-99.99,HOBO +U30 +Weather +,2013-08-31 22:45:00,
2013-08-31 19:00:00,74.0,71.5,-100.00,WSW,241,2.9,8.3,91,0.00,,,-99.99,HOBO +U30 +Weather +,2013-08-31 23:00:00,
2013-08-31 19:15:00,73.9,71.5,-100.00,WSW,253,2.9,7.2,92,0.00,,,-99.99,HOBO +U30 +Weather +,2013-08-31 23:15:00,
2013-08-31 19:30:00,73.7,71.5,-100.00,WSW,256,2.5,9.2,92,0.00,,,-99.99,HOBO +U30 +Weather +,2013-08-31 23:30:00,
2013-08-31 19:45:00,73.8,71.6,-100.00,WSW,258,3.8,9.2,92,0.00,,,-99.99,HOBO +U30 +Weather +,2013-08-31 23:45:00,
2013-08-31 20:00:00,73.4,71.5,-100.00,WSW,257,3.4,7.8,93,0.00,,,-99.99,HOBO +U30 +Weather +,2013-09-01 00:00:00,
2013-08-31 20:15:00,73.3,71.4,-100.00,WSW,247,2.9,8.3,93,0.00,,,-99.99,HOBO +U30 +Weather +,2013-09-01 00:15:00,
2013-08-31 20:30:00,73.1,71.3,-100.00,WSW,246,4.3,8.3,93,0.00,,,-99.99,HOBO +U30 +Weather +,2013-09-01 00:30:00,
2013-08-31 20:45:00,73.0,71.3,-100.00,WSW,250,3.8,7.4,94,0.00,,,-99.99,HOBO +U30 +Weather +,2013-09-01 00:45:00,
2013-08-31 21:00:00,73.0,71.4,-100.00,WSW,254,3.8,10.1,94,0.00,,,-99.99,HOBO +U30 +Weather +,2013-09-01 01:00:00,
2013-08-31 21:15:00,73.1,71.4,-100.00,West,260,4.3,9.2,94,0.00,,,-99.99,HOBO +U30 +Weather +,2013-09-01 01:15:00,
2013-08-31 21:30:00,72.9,71.3,-100.00,WSW,254,4.3,8.3,94,0.00,,,-99.99,HOBO +U30 +Weather +,2013-09-01 01:30:00,
2013-08-31 21:45:00,72.6,71.1,-100.00,WSW,237,2.9,9.2,94,0.00,,,-99.99,HOBO +U30 +Weather +,2013-09-01 01:45:00,
2013-08-31 22:00:00,72.8,71.3,-100.00,SW,233,3.4,7.8,94,0.00,,,-99.99,HOBO +U30 +Weather +,2013-09-01 02:00:00,
2013-08-31 22:15:00,73.0,71.4,-100.00,WSW,244,2.9,7.4,94,0.00,,,-99.99,HOBO +U30 +Weather +,2013-09-01 02:15:00,
2013-08-31 22:30:00,73.1,71.4,-100.00,WSW,241,4.3,9.2,94,0.00,,,-99.99,HOBO +U30 +Weather +,2013-09-01 02:30:00,
2013-08-31 22:45:00,72.8,71.1,-100.00,WSW,247,4.3,10.1,94,0.00,,,-99.99,HOBO +U30 +Weather +,2013-09-01 02:45:00,
2013-08-31 23:00:00,72.8,71.2,-100.00,WSW,256,3.8,10.7,94,0.00,,,-99.99,HOBO +U30 +Weather +,2013-09-01 03:00:00,
2013-08-31 23:15:00,72.7,71.0,-100.00,WSW,250,3.8,10.3,94,0.00,,,-99.99,HOBO +U30 +Weather +,2013-09-01 03:15:00,
2013-08-31 23:30:00,72.5,70.9,-100.00,West,264,4.9,12.1,94,0.00,,,-99.99,HOBO +U30 +Weather +,2013-09-01 03:30:00,
2013-08-31 23:45:00,72.3,70.7,-100.00,West,267,4.5,11.6,94,0.00,,,-99.99,HOBO +U30 +Weather +,2013-09-01 03:45:00,